createdAt,value
2019-01-28T00:00:17.996Z,3.60
2019-01-28T00:02:46.464Z,3.50
2019-01-28T00:05:14.919Z,3.40
2019-01-28T00:07:43.327Z,3.40
2019-01-28T00:10:11.797Z,3.40
2019-01-28T00:12:40.201Z,3.40
2019-01-28T00:17:36.977Z,3.40
2019-01-28T00:20:07.155Z,3.40
2019-01-28T00:22:35.547Z,3.40
2019-01-28T00:25:04.910Z,3.40
2019-01-28T00:27:33.295Z,3.30
2019-01-28T00:30:01.709Z,3.20
2019-01-28T00:32:30.363Z,3.10
2019-01-28T00:34:58.771Z,3.00
2019-01-28T00:37:27.173Z,2.90
2019-01-28T00:39:55.665Z,2.80
2019-01-28T00:42:29.717Z,2.80
2019-01-28T00:44:58.124Z,2.70
2019-01-28T00:49:54.597Z,2.60
2019-01-28T00:54:51.068Z,2.50
2019-01-28T00:57:19.459Z,2.40
2019-01-28T00:59:47.875Z,2.40
2019-01-28T01:02:16.259Z,2.40
2019-01-28T01:04:44.656Z,2.40
2019-01-28T01:07:13.043Z,2.40
2019-01-28T01:12:28.866Z,2.30
2019-01-28T01:17:25.339Z,2.20
2019-01-28T01:22:21.808Z,2.30
2019-01-28T01:24:50.220Z,2.30
2019-01-28T01:27:18.623Z,2.20
2019-01-28T01:29:47.056Z,2.20
2019-01-28T01:32:15.447Z,2.10
2019-01-28T01:34:43.852Z,2.10
2019-01-28T01:37:12.264Z,2.00
2019-01-28T01:39:40.667Z,2.00
2019-01-28T01:42:09.208Z,2.00
2019-01-28T01:44:37.636Z,2.10
2019-01-28T01:49:34.105Z,2.20
2019-01-28T01:52:02.516Z,2.10
2019-01-28T01:54:30.969Z,2.10
2019-01-28T01:56:59.377Z,2.10
2019-01-28T01:59:27.780Z,2.00
2019-01-28T02:01:56.163Z,1.90
2019-01-28T02:04:24.564Z,1.90
2019-01-28T02:09:21.240Z,1.80
2019-01-28T02:11:49.647Z,1.80
2019-01-28T02:14:18.047Z,1.80
2019-01-28T02:16:46.455Z,1.70
2019-01-28T02:19:34.193Z,1.70
2019-01-28T02:22:02.972Z,1.70
2019-01-28T02:24:31.364Z,1.70
2019-01-28T02:26:59.760Z,1.80
2019-01-28T02:29:28.157Z,1.80
2019-01-28T02:34:24.636Z,1.80
2019-01-28T02:39:21.117Z,1.80
2019-01-28T02:41:49.521Z,1.80
2019-01-28T02:44:17.912Z,1.80
2019-01-28T02:46:46.319Z,1.80
2019-01-28T02:49:14.713Z,1.90
2019-01-28T02:51:43.139Z,1.90
2019-01-28T02:54:11.540Z,1.90
2019-01-28T02:56:39.943Z,1.90
2019-01-28T02:59:08.424Z,1.90
2019-01-28T03:01:36.820Z,1.90
2019-01-28T03:06:33.294Z,1.90
2019-01-28T03:09:01.683Z,1.80
2019-01-28T03:11:30.093Z,1.80
2019-01-28T03:13:58.483Z,1.80
2019-01-28T03:16:26.891Z,1.80
2019-01-28T03:21:23.370Z,1.80
2019-01-28T03:26:19.845Z,1.80
2019-01-28T03:28:48.241Z,1.80
2019-01-28T03:31:16.657Z,1.70
2019-01-28T03:33:45.037Z,1.70
2019-01-28T03:36:13.444Z,1.70
2019-01-28T03:38:41.841Z,1.70
2019-01-28T03:41:10.228Z,1.70
2019-01-28T03:43:38.627Z,1.70
2019-01-28T03:46:09.553Z,1.70
2019-01-28T03:53:33.589Z,1.70
2019-01-28T03:56:01.997Z,1.70
2019-01-28T03:58:30.452Z,1.70
2019-01-28T04:00:58.841Z,1.70
2019-01-28T04:05:55.325Z,1.80
2019-01-28T04:08:23.733Z,1.70
2019-01-28T04:10:52.129Z,1.70
2019-01-28T04:13:20.530Z,1.80
2019-01-28T04:15:48.921Z,1.80
2019-01-28T04:18:17.467Z,1.80
2019-01-28T04:20:45.866Z,1.80
2019-01-28T04:23:14.280Z,1.80
2019-01-28T04:25:42.670Z,1.80
2019-01-28T04:28:11.074Z,1.80
2019-01-28T04:30:39.472Z,1.80
2019-01-28T04:35:35.935Z,1.80
2019-01-28T04:38:04.339Z,1.70
2019-01-28T04:40:52.091Z,1.80
2019-01-28T04:43:20.496Z,1.70
2019-01-28T04:45:48.894Z,1.70
2019-01-28T04:48:17.474Z,1.70
2019-01-28T04:50:45.895Z,1.70
2019-01-28T04:55:42.377Z,1.70
2019-01-28T04:58:10.776Z,1.70
2019-01-28T05:00:39.170Z,1.70
2019-01-28T05:03:07.580Z,1.70
2019-01-28T05:05:35.986Z,1.70
2019-01-28T05:08:04.649Z,1.70
2019-01-28T05:10:33.041Z,1.70
2019-01-28T05:13:01.447Z,1.70
2019-01-28T05:15:29.848Z,1.70
2019-01-28T05:20:26.593Z,1.70
2019-01-28T05:22:55.024Z,1.70
2019-01-28T05:25:23.429Z,1.70
2019-01-28T05:27:51.820Z,1.70
2019-01-28T05:30:24.700Z,1.80
2019-01-28T05:32:53.333Z,1.70
2019-01-28T05:35:22.983Z,1.70
2019-01-28T05:40:22.432Z,1.70
2019-01-28T05:42:50.831Z,1.70
2019-01-28T05:45:21.671Z,1.70
2019-01-28T05:47:50.075Z,1.60
2019-01-28T05:50:18.795Z,1.60
2019-01-28T05:52:47.324Z,1.60
2019-01-28T05:55:18.059Z,1.60
2019-01-28T05:57:47.092Z,1.60
2019-01-28T06:00:34.860Z,1.60
2019-01-28T06:03:03.264Z,1.60
2019-01-28T06:05:31.737Z,1.70
2019-01-28T06:08:00.130Z,1.70
2019-01-28T06:10:28.543Z,1.70
2019-01-28T06:12:56.923Z,1.70
2019-01-28T06:17:53.417Z,1.70
2019-01-28T06:20:23.862Z,1.70
2019-01-28T06:22:52.530Z,1.80
2019-01-28T06:25:21.009Z,1.80
2019-01-28T06:27:49.404Z,1.70
2019-01-28T06:30:26.380Z,1.70
2019-01-28T06:32:54.839Z,1.70
2019-01-28T06:35:23.316Z,1.70
2019-01-28T06:37:51.708Z,1.70
2019-01-28T06:40:25.989Z,1.80
2019-01-28T06:42:54.380Z,1.70
2019-01-28T06:45:22.784Z,1.80
2019-01-28T06:47:51.171Z,1.70
2019-01-28T06:52:48.983Z,1.80
2019-01-28T06:57:46.380Z,1.80
2019-01-28T07:00:32.313Z,1.80
2019-01-28T07:05:29.141Z,1.80
2019-01-28T07:07:57.713Z,1.80
2019-01-28T07:12:54.192Z,1.80
2019-01-28T07:15:23.845Z,1.90
2019-01-28T07:17:55.110Z,1.80
2019-01-28T07:20:26.050Z,1.80
2019-01-28T07:22:54.620Z,1.80
2019-01-28T07:25:23.034Z,1.80
2019-01-28T07:27:51.428Z,1.80
2019-01-28T07:30:31.255Z,1.80
2019-01-28T07:33:00.101Z,1.80
2019-01-28T07:35:28.579Z,1.80
2019-01-28T07:37:56.968Z,1.80
2019-01-28T07:40:25.389Z,1.80
2019-01-28T07:42:53.783Z,1.80
2019-01-28T07:45:27.578Z,1.80
2019-01-28T07:48:02.722Z,1.90
2019-01-28T07:50:26.095Z,1.90
2019-01-28T07:52:54.569Z,1.90
2019-01-28T07:55:23.036Z,1.90
2019-01-28T08:00:22.433Z,2.00
2019-01-28T08:02:50.838Z,2.00
2019-01-28T08:05:20.169Z,2.00
2019-01-28T08:07:48.756Z,2.00
2019-01-28T08:10:19.175Z,2.00
2019-01-28T08:12:48.242Z,2.00
2019-01-28T08:15:19.353Z,2.10
2019-01-28T08:17:48.124Z,2.00
2019-01-28T08:20:18.172Z,2.00
2019-01-28T08:22:46.961Z,2.00
2019-01-28T08:25:19.864Z,2.00
2019-01-28T08:27:48.508Z,2.00
2019-01-28T08:30:22.292Z,2.00
2019-01-28T08:32:50.711Z,2.00
2019-01-28T08:35:19.429Z,2.10
2019-01-28T08:37:48.008Z,2.20
2019-01-28T08:40:18.640Z,2.20
2019-01-28T08:42:47.044Z,2.30
2019-01-28T08:45:15.524Z,2.30
2019-01-28T08:47:43.927Z,2.40
2019-01-28T08:50:18.456Z,2.40
2019-01-28T08:55:23.695Z,2.50
2019-01-28T08:57:52.365Z,2.60
2019-01-28T09:02:53.212Z,2.70
2019-01-28T09:05:22.449Z,2.70
2019-01-28T09:07:51.028Z,2.70
2019-01-28T09:10:25.351Z,2.70
2019-01-28T09:12:53.764Z,2.70
2019-01-28T09:15:23.793Z,2.70
2019-01-28T09:17:52.199Z,2.70
2019-01-28T09:20:23.228Z,2.80
2019-01-28T09:22:52.116Z,2.90
2019-01-28T09:25:20.785Z,2.90
2019-01-28T09:30:31.872Z,2.90
2019-01-28T09:33:00.357Z,2.90
2019-01-28T09:40:28.694Z,3.00
2019-01-28T09:42:57.160Z,3.00
2019-01-28T09:47:55.384Z,3.10
2019-01-28T09:50:24.415Z,3.10
2019-01-28T09:52:53.567Z,3.10
2019-01-28T09:55:22.322Z,3.10
2019-01-28T09:57:50.784Z,3.10
2019-01-28T10:00:22.547Z,3.10
2019-01-28T10:02:51.208Z,3.00
2019-01-28T10:05:20.174Z,3.00
2019-01-28T10:07:48.561Z,3.00
2019-01-28T10:10:19.004Z,3.00
2019-01-28T10:17:45.165Z,2.90
2019-01-28T10:20:16.652Z,3.00
2019-01-28T10:22:45.133Z,2.90
2019-01-28T10:25:13.716Z,2.90
2019-01-28T10:27:42.197Z,2.90
2019-01-28T10:30:13.673Z,2.80
2019-01-28T10:32:42.344Z,2.90
2019-01-28T10:35:11.187Z,2.90
2019-01-28T10:37:39.589Z,2.90
2019-01-28T10:40:11.080Z,3.00
2019-01-28T10:42:39.473Z,3.10
2019-01-28T10:45:10.974Z,3.10
2019-01-28T10:47:39.372Z,3.30
2019-01-28T10:50:13.461Z,3.30
2019-01-28T10:52:42.024Z,3.50
2019-01-28T10:55:12.276Z,3.70
2019-01-28T10:57:40.673Z,3.70
2019-01-28T11:00:15.184Z,3.80
2019-01-28T11:02:43.664Z,3.80
2019-01-28T11:05:12.518Z,3.70
2019-01-28T11:07:40.921Z,3.80
2019-01-28T11:10:12.788Z,3.80
2019-01-28T11:12:41.257Z,3.80
2019-01-28T11:15:12.999Z,3.80
2019-01-28T11:17:41.486Z,3.90
2019-01-28T11:20:12.474Z,3.90
2019-01-28T11:22:40.854Z,3.90
2019-01-28T11:25:15.094Z,3.70
2019-01-28T11:27:43.526Z,3.70
2019-01-28T11:30:25.931Z,3.90
2019-01-28T11:32:54.377Z,4.00
2019-01-28T11:35:23.133Z,4.10
2019-01-28T11:37:51.602Z,4.20
2019-01-28T11:40:20.470Z,4.10
2019-01-28T11:42:49.056Z,4.00
2019-01-28T11:45:36.117Z,4.00
2019-01-28T11:48:06.633Z,4.10
2019-01-28T11:50:35.428Z,4.20
2019-01-28T11:53:04.391Z,4.30
2019-01-28T11:55:32.973Z,4.40
2019-01-28T11:58:01.364Z,4.30
2019-01-28T12:03:01.027Z,4.20
2019-01-28T12:05:29.440Z,4.10
2019-01-28T12:07:58.151Z,4.00
2019-01-28T12:10:26.558Z,4.00
2019-01-28T12:15:42.371Z,4.00
2019-01-28T12:18:10.771Z,3.90
2019-01-28T12:20:39.176Z,4.00
2019-01-28T12:23:07.567Z,4.00
2019-01-28T12:25:55.312Z,3.80
2019-01-28T12:33:19.850Z,3.80
2019-01-28T12:35:48.265Z,3.80
2019-01-28T12:40:44.740Z,3.80
2019-01-28T12:43:13.136Z,3.60
2019-01-28T12:45:41.538Z,3.50
2019-01-28T12:48:09.937Z,3.40
2019-01-28T12:50:38.324Z,3.30
2019-01-28T12:53:06.799Z,3.30
2019-01-28T12:55:35.204Z,3.40
2019-01-28T12:58:03.990Z,3.30
2019-01-28T13:00:41.620Z,3.30
2019-01-28T13:05:40.008Z,3.10
2019-01-28T13:08:08.404Z,3.20
2019-01-28T13:10:37.281Z,3.20
2019-01-28T13:13:05.969Z,3.20
2019-01-28T13:15:35.196Z,3.10
2019-01-28T13:18:04.080Z,3.10
2019-01-28T13:20:32.534Z,3.20
2019-01-28T13:23:00.928Z,3.20
2019-01-28T13:25:31.537Z,3.20
2019-01-28T13:27:59.940Z,3.10
2019-01-28T13:30:32.431Z,3.20
2019-01-28T13:33:01.485Z,3.20
2019-01-28T13:35:29.875Z,3.20
2019-01-28T13:37:58.276Z,3.20
2019-01-28T13:40:26.676Z,3.30
2019-01-28T13:42:55.092Z,3.40
2019-01-28T13:45:24.424Z,3.40
2019-01-28T13:47:53.772Z,3.40
2019-01-28T13:52:51.441Z,3.50
2019-01-28T13:55:21.480Z,3.50
2019-01-28T13:57:50.523Z,3.30
2019-01-28T14:00:24.704Z,3.30
2019-01-28T14:02:53.449Z,3.30
2019-01-28T14:05:22.784Z,3.20
2019-01-28T14:07:51.260Z,3.20
2019-01-28T14:10:21.705Z,3.20
2019-01-28T14:12:50.649Z,3.20
2019-01-28T14:15:24.640Z,3.20
2019-01-28T14:17:53.048Z,3.20
2019-01-28T14:20:24.082Z,3.10
2019-01-28T14:22:52.489Z,3.10
2019-01-28T14:25:20.894Z,3.10
2019-01-28T14:27:50.056Z,3.00
2019-01-28T14:30:21.720Z,3.00
2019-01-28T14:32:50.171Z,3.00
2019-01-28T14:35:18.607Z,2.90
2019-01-28T14:37:47.015Z,2.90
2019-01-28T14:45:13.565Z,2.80
2019-01-28T14:47:42.040Z,2.80
2019-01-28T14:50:16.465Z,2.80
2019-01-28T14:52:44.864Z,2.70
2019-01-28T14:55:13.606Z,2.60
2019-01-28T14:57:42.283Z,2.60
2019-01-28T15:00:28.082Z,2.60
2019-01-28T15:02:57.389Z,2.50
2019-01-28T15:05:25.863Z,2.50
2019-01-28T15:07:54.841Z,2.40
2019-01-28T15:10:24.538Z,2.30
2019-01-28T15:12:53.088Z,2.30
2019-01-28T15:17:54.519Z,2.20
2019-01-28T15:20:22.925Z,2.20
2019-01-28T15:22:51.329Z,2.20
2019-01-28T15:25:19.744Z,2.20
2019-01-28T15:27:48.139Z,2.10
2019-01-28T15:30:22.644Z,2.10
2019-01-28T15:32:51.347Z,2.10
2019-01-28T15:35:19.899Z,2.00
2019-01-28T15:37:48.304Z,2.00
2019-01-28T15:40:19.553Z,2.00
2019-01-28T15:42:48.032Z,2.00
2019-01-28T15:45:19.384Z,1.90
2019-01-28T15:47:47.846Z,1.90
2019-01-28T15:50:17.592Z,1.90
2019-01-28T15:52:45.988Z,1.90
2019-01-28T15:55:20.744Z,1.90
2019-01-28T15:57:49.151Z,1.80
2019-01-28T16:00:20.908Z,1.90
2019-01-28T16:02:49.389Z,1.80
2019-01-28T16:05:17.799Z,1.80
2019-01-28T16:07:46.196Z,1.80
2019-01-28T16:10:17.300Z,1.70
2019-01-28T16:12:46.338Z,1.70
2019-01-28T16:15:18.152Z,1.70
2019-01-28T16:17:46.573Z,1.70
2019-01-28T16:20:18.688Z,1.60
2019-01-28T16:25:14.416Z,1.60
2019-01-28T16:27:42.808Z,1.60
2019-01-28T16:30:26.479Z,1.60
2019-01-28T16:32:53.427Z,1.60
2019-01-28T16:35:22.776Z,1.60
2019-01-28T16:37:53.104Z,1.60
2019-01-28T16:40:24.727Z,1.60
2019-01-28T16:42:53.705Z,1.60
2019-01-28T16:45:22.458Z,1.60
2019-01-28T16:50:26.830Z,1.60
2019-01-28T16:52:52.333Z,1.60
2019-01-28T16:55:20.822Z,1.60
2019-01-28T16:57:49.570Z,1.60
2019-01-28T17:02:54.060Z,1.60
2019-01-28T17:05:22.744Z,1.60
2019-01-28T17:07:51.392Z,1.60
2019-01-28T17:10:19.858Z,1.60
2019-01-28T17:15:18.455Z,1.60
2019-01-28T17:17:47.045Z,1.50
2019-01-28T17:20:24.390Z,1.50
2019-01-28T17:22:52.800Z,1.40
2019-01-28T17:27:51.092Z,1.40
2019-01-28T17:30:28.421Z,1.40
2019-01-28T17:32:56.829Z,1.40
2019-01-28T17:35:25.291Z,1.40
2019-01-28T17:40:33.990Z,1.30
2019-01-28T17:43:02.396Z,1.30
2019-01-28T17:47:59.036Z,1.30
2019-01-28T17:50:27.712Z,1.20
2019-01-28T17:52:56.172Z,1.20
2019-01-28T17:55:24.668Z,1.20
2019-01-28T17:57:53.072Z,1.20
2019-01-28T18:00:30.699Z,1.10
2019-01-28T18:05:27.455Z,1.10
2019-01-28T18:07:55.869Z,1.10
2019-01-28T18:10:24.504Z,1.10
2019-01-28T18:12:53.213Z,1.00
2019-01-28T18:15:26.573Z,1.00
2019-01-28T18:17:55.070Z,1.10
2019-01-28T18:22:51.533Z,1.00
2019-01-28T18:25:25.645Z,0.90
2019-01-28T18:27:54.110Z,1.00
2019-01-28T18:32:56.808Z,0.90
2019-01-28T18:37:53.976Z,0.90
2019-01-28T18:40:22.372Z,0.90
2019-01-28T18:42:50.787Z,0.90
2019-01-28T18:45:20.416Z,0.90
2019-01-28T18:47:49.193Z,0.90
2019-01-28T18:50:24.639Z,0.90
2019-01-28T18:52:53.360Z,0.90
2019-01-28T18:55:22.508Z,0.90
2019-01-28T18:57:50.904Z,0.90
2019-01-28T19:00:24.539Z,1.00
2019-01-28T19:02:53.997Z,1.00
2019-01-28T19:05:39.574Z,0.90
2019-01-28T19:08:12.982Z,0.90
2019-01-28T19:10:55.307Z,0.90
2019-01-28T19:15:58.088Z,1.00
2019-01-28T19:21:09.833Z,1.00
2019-01-28T19:23:38.328Z,1.00
2019-01-28T19:26:07.004Z,1.00
2019-01-28T19:28:35.422Z,1.00
2019-01-28T19:38:28.532Z,1.10
2019-01-28T19:43:25.014Z,1.10
2019-01-28T19:53:17.631Z,1.10
2019-01-28T19:55:46.035Z,1.10
2019-01-28T19:58:14.438Z,1.10
2019-01-28T20:03:11.246Z,1.10
2019-01-28T20:05:39.650Z,1.10
2019-01-28T20:08:08.047Z,1.10
2019-01-28T20:10:36.448Z,1.10
2019-01-28T20:13:05.220Z,1.10
2019-01-28T20:15:33.624Z,1.10
2019-01-28T20:18:02.016Z,1.20
2019-01-28T20:20:30.431Z,1.20
2019-01-28T20:25:27.040Z,1.30
2019-01-28T20:30:26.160Z,1.30
2019-01-28T20:32:54.786Z,1.30
2019-01-28T20:37:51.259Z,1.30
2019-01-28T20:42:47.723Z,1.40
2019-01-28T20:45:22.098Z,1.40
2019-01-28T20:47:50.507Z,1.40
2019-01-28T20:52:54.011Z,1.40
2019-01-28T20:55:22.408Z,1.40
2019-01-28T20:57:50.821Z,1.40
2019-01-28T21:00:21.927Z,1.40
2019-01-28T21:02:50.315Z,1.40
2019-01-28T21:05:20.729Z,1.40
2019-01-28T21:07:49.277Z,1.40
2019-01-28T21:10:22.035Z,1.40
2019-01-28T21:12:51.848Z,1.40
2019-01-28T21:15:20.327Z,1.40
2019-01-28T21:17:49.269Z,1.40
2019-01-28T21:20:22.352Z,1.40
2019-01-28T21:22:51.393Z,1.40
2019-01-28T21:25:22.135Z,1.40
2019-01-28T21:27:50.629Z,1.40
2019-01-28T21:30:24.383Z,1.40
2019-01-28T21:35:22.492Z,1.40
2019-01-28T21:38:00.208Z,1.40
2019-01-28T21:40:22.664Z,1.40
2019-01-28T21:45:19.139Z,1.50
2019-01-28T21:47:53.656Z,1.50
2019-01-28T21:52:50.688Z,1.50
2019-01-28T21:57:47.156Z,1.50
2019-01-28T22:00:16.398Z,1.40
2019-01-28T22:02:44.864Z,1.30
2019-01-28T22:07:41.427Z,1.30
2019-01-28T22:12:39.865Z,1.30
2019-01-28T22:15:19.259Z,1.30
2019-01-28T22:17:47.660Z,1.40
2019-01-28T22:20:16.256Z,1.30
2019-01-28T22:22:45.012Z,1.30
2019-01-28T22:25:15.451Z,1.30
2019-01-28T22:27:43.856Z,1.30
2019-01-28T22:30:23.512Z,1.30
2019-01-28T22:32:52.161Z,1.20
2019-01-28T22:35:20.552Z,1.20
2019-01-28T22:37:48.947Z,1.20
2019-01-28T22:40:19.025Z,1.20
2019-01-28T22:42:47.416Z,1.10
2019-01-28T22:45:21.837Z,1.10
2019-01-28T22:47:50.232Z,1.10
2019-01-28T22:50:21.179Z,1.20
2019-01-28T22:52:49.648Z,1.20
2019-01-28T22:55:20.777Z,1.20
2019-01-28T22:57:49.243Z,1.20
2019-01-28T23:00:46.250Z,1.20
2019-01-28T23:03:15.484Z,1.20
2019-01-28T23:05:43.887Z,1.20
2019-01-28T23:08:12.376Z,1.20
2019-01-28T23:10:40.952Z,1.20
2019-01-28T23:15:37.424Z,1.20
2019-01-28T23:18:06.156Z,1.20
2019-01-28T23:20:34.557Z,1.20
2019-01-28T23:25:31.029Z,1.20
2019-01-28T23:27:59.452Z,1.20
2019-01-28T23:30:27.837Z,1.20
2019-01-28T23:32:56.228Z,1.10
2019-01-28T23:35:24.679Z,1.10
2019-01-28T23:37:53.081Z,1.10
2019-01-28T23:40:21.663Z,1.10
2019-01-28T23:42:50.052Z,1.20
2019-01-28T23:45:18.548Z,1.20
2019-01-28T23:47:46.940Z,1.10
2019-01-28T23:53:02.852Z,1.10
2019-01-28T23:55:31.254Z,1.10
